sensor_id;sensor_type;location;lat;lon;timestamp;temperature;humidity
27759;DHT22;15148;48.972;12.794;2022-09-12T00:02:25;13.80;99.90
27759;DHT22;15148;48.972;12.794;2022-09-12T00:07:27;13.80;99.90
27759;DHT22;15148;48.972;12.794;2022-09-12T00:12:29;13.80;99.90
27759;DHT22;15148;48.972;12.794;2022-09-12T00:17:34;13.80;99.90
27759;DHT22;15148;48.972;12.794;2022-09-12T00:22:36;13.80;99.90
27759;DHT22;15148;48.972;12.794;2022-09-12T00:27:38;13.70;99.90
27759;DHT22;15148;48.972;12.794;2022-09-12T00:32:39;13.60;99.90
27759;DHT22;15148;48.972;12.794;2022-09-12T00:37:41;13.60;99.90
27759;DHT22;15148;48.972;12.794;2022-09-12T00:42:43;13.50;99.90
27759;DHT22;15148;48.972;12.794;2022-09-12T00:47:45;13.50;99.90
27759;DHT22;15148;48.972;12.794;2022-09-12T00:52:51;13.50;99.90
27759;DHT22;15148;48.972;12.794;2022-09-12T00:58:21;13.50;99.90
27759;DHT22;15148;48.972;12.794;2022-09-12T01:03:24;13.50;99.90
27759;DHT22;15148;48.972;12.794;2022-09-12T01:08:26;13.50;99.90
27759;DHT22;15148;48.972;12.794;2022-09-12T01:13:29;13.40;99.90
27759;DHT22;15148;48.972;12.794;2022-09-12T01:34:58;13.20;99.90
27759;DHT22;15148;48.972;12.794;2022-09-12T01:45:32;13.00;99.90
27759;DHT22;15148;48.972;12.794;2022-09-12T01:50:47;12.90;99.90
27759;DHT22;15148;48.972;12.794;2022-09-12T01:55:59;12.80;99.90
27759;DHT22;15148;48.972;12.794;2022-09-12T02:01:12;12.70;99.90
27759;DHT22;15148;48.972;12.794;2022-09-12T02:06:21;12.60;99.90
27759;DHT22;15148;48.972;12.794;2022-09-12T02:11:24;12.60;99.90
27759;DHT22;15148;48.972;12.794;2022-09-12T02:21:35;12.40;99.90
27759;DHT22;15148;48.972;12.794;2022-09-12T02:26:57;12.30;99.90
27759;DHT22;15148;48.972;12.794;2022-09-12T02:32:05;12.20;99.90
27759;DHT22;15148;48.972;12.794;2022-09-12T02:42:31;12.20;99.90
27759;DHT22;15148;48.972;12.794;2022-09-12T02:47:50;12.10;99.90
27759;DHT22;15148;48.972;12.794;2022-09-12T02:52:53;11.90;99.90
27759;DHT22;15148;48.972;12.794;2022-09-12T02:58:02;11.80;99.90
27759;DHT22;15148;48.972;12.794;2022-09-12T03:24:13;11.70;99.90
27759;DHT22;15148;48.972;12.794;2022-09-12T03:29:18;11.50;99.90
27759;DHT22;15148;48.972;12.794;2022-09-12T03:34:22;11.50;99.90
27759;DHT22;15148;48.972;12.794;2022-09-12T03:39:24;11.40;99.90
27759;DHT22;15148;48.972;12.794;2022-09-12T03:44:27;11.30;99.90
27759;DHT22;15148;48.972;12.794;2022-09-12T03:49:29;11.40;99.90
27759;DHT22;15148;48.972;12.794;2022-09-12T03:54:30;11.30;99.90
27759;DHT22;15148;48.972;12.794;2022-09-12T03:59:32;11.20;99.90
27759;DHT22;15148;48.972;12.794;2022-09-12T04:04:34;11.20;99.90
27759;DHT22;15148;48.972;12.794;2022-09-12T04:09:36;11.10;99.90
27759;DHT22;15148;48.972;12.794;2022-09-12T04:14:38;11.10;99.90
27759;DHT22;15148;48.972;12.794;2022-09-12T04:19:40;11.10;99.90
27759;DHT22;15148;48.972;12.794;2022-09-12T04:24:42;11.10;99.90
27759;DHT22;15148;48.972;12.794;2022-09-12T04:29:44;11.10;99.90
27759;DHT22;15148;48.972;12.794;2022-09-12T04:34:45;11.00;99.90
27759;DHT22;15148;48.972;12.794;2022-09-12T04:39:47;10.90;99.90
27759;DHT22;15148;48.972;12.794;2022-09-12T04:44:50;10.90;99.90
27759;DHT22;15148;48.972;12.794;2022-09-12T04:49:52;11.00;99.90
27759;DHT22;15148;48.972;12.794;2022-09-12T04:54:54;10.90;99.90
27759;DHT22;15148;48.972;12.794;2022-09-12T04:59:56;10.90;99.90
27759;DHT22;15148;48.972;12.794;2022-09-12T05:04:57;10.80;99.90
27759;DHT22;15148;48.972;12.794;2022-09-12T05:09:59;10.80;99.90
27759;DHT22;15148;48.972;12.794;2022-09-12T05:15:01;10.90;99.90
27759;DHT22;15148;48.972;12.794;2022-09-12T05:20:03;10.90;99.90
27759;DHT22;15148;48.972;12.794;2022-09-12T05:25:06;10.80;99.90
27759;DHT22;15148;48.972;12.794;2022-09-12T05:30:08;10.90;99.90
27759;DHT22;15148;48.972;12.794;2022-09-12T05:35:10;10.90;99.90
27759;DHT22;15148;48.972;12.794;2022-09-12T05:40:12;11.00;99.90
27759;DHT22;15148;48.972;12.794;2022-09-12T05:45:18;11.00;99.90
27759;DHT22;15148;48.972;12.794;2022-09-12T05:50:20;11.20;99.90
27759;DHT22;15148;48.972;12.794;2022-09-12T05:55:22;11.20;99.90
27759;DHT22;15148;48.972;12.794;2022-09-12T06:00:26;11.40;99.90
27759;DHT22;15148;48.972;12.794;2022-09-12T06:05:33;11.60;99.90
27759;DHT22;15148;48.972;12.794;2022-09-12T06:10:35;11.70;99.90
27759;DHT22;15148;48.972;12.794;2022-09-12T06:15:37;11.90;99.90
27759;DHT22;15148;48.972;12.794;2022-09-12T06:20:39;12.10;99.90
27759;DHT22;15148;48.972;12.794;2022-09-12T06:25:46;12.40;99.90
27759;DHT22;15148;48.972;12.794;2022-09-12T06:30:48;12.80;99.90
27759;DHT22;15148;48.972;12.794;2022-09-12T06:35:50;13.10;99.90
27759;DHT22;15148;48.972;12.794;2022-09-12T06:40:52;13.40;99.90
27759;DHT22;15148;48.972;12.794;2022-09-12T06:45:54;13.60;99.90
27759;DHT22;15148;48.972;12.794;2022-09-12T06:50:57;13.90;99.90
27759;DHT22;15148;48.972;12.794;2022-09-12T06:56:03;14.10;99.90
27759;DHT22;15148;48.972;12.794;2022-09-12T07:06:11;14.80;99.90
27759;DHT22;15148;48.972;12.794;2022-09-12T07:11:21;15.10;99.90
27759;DHT22;15148;48.972;12.794;2022-09-12T07:16:24;15.40;99.90
27759;DHT22;15148;48.972;12.794;2022-09-12T07:21:27;15.50;99.90
27759;DHT22;15148;48.972;12.794;2022-09-12T07:26:29;15.60;99.90
27759;DHT22;15148;48.972;12.794;2022-09-12T07:31:31;15.70;99.90
27759;DHT22;15148;48.972;12.794;2022-09-12T07:36:33;15.60;99.90
27759;DHT22;15148;48.972;12.794;2022-09-12T07:41:35;15.40;99.90
27759;DHT22;15148;48.972;12.794;2022-09-12T07:46:37;15.30;99.90
27759;DHT22;15148;48.972;12.794;2022-09-12T07:51:40;15.20;99.90
27759;DHT22;15148;48.972;12.794;2022-09-12T07:56:42;15.20;99.90
27759;DHT22;15148;48.972;12.794;2022-09-12T08:01:44;15.20;99.90
27759;DHT22;15148;48.972;12.794;2022-09-12T08:06:46;15.30;99.90
27759;DHT22;15148;48.972;12.794;2022-09-12T08:11:48;15.40;99.90
27759;DHT22;15148;48.972;12.794;2022-09-12T08:16:49;15.30;99.90
27759;DHT22;15148;48.972;12.794;2022-09-12T08:21:51;15.30;99.90
27759;DHT22;15148;48.972;12.794;2022-09-12T08:26:53;15.40;99.90
27759;DHT22;15148;48.972;12.794;2022-09-12T08:31:55;15.50;99.90
27759;DHT22;15148;48.972;12.794;2022-09-12T08:36:58;15.40;99.90
27759;DHT22;15148;48.972;12.794;2022-09-12T08:42:01;15.50;99.90
27759;DHT22;15148;48.972;12.794;2022-09-12T08:47:33;15.60;99.90
27759;DHT22;15148;48.972;12.794;2022-09-12T08:52:49;15.60;99.90
27759;DHT22;15148;48.972;12.794;2022-09-12T08:57:52;15.60;99.90
27759;DHT22;15148;48.972;12.794;2022-09-12T09:03:03;15.60;99.90
27759;DHT22;15148;48.972;12.794;2022-09-12T09:18:59;15.70;99.90
27759;DHT22;15148;48.972;12.794;2022-09-12T09:24:10;15.70;99.90
27759;DHT22;15148;48.972;12.794;2022-09-12T09:29:14;15.60;99.90
27759;DHT22;15148;48.972;12.794;2022-09-12T09:34:23;15.60;99.90
27759;DHT22;15148;48.972;12.794;2022-09-12T09:44:46;15.60;99.90
27759;DHT22;15148;48.972;12.794;2022-09-12T09:49:49;15.70;99.90
27759;DHT22;15148;48.972;12.794;2022-09-12T09:54:56;15.70;99.90
27759;DHT22;15148;48.972;12.794;2022-09-12T10:00:06;15.70;99.90
27759;DHT22;15148;48.972;12.794;2022-09-12T10:05:22;15.90;99.90
27759;DHT22;15148;48.972;12.794;2022-09-12T10:10:24;16.00;99.90
27759;DHT22;15148;48.972;12.794;2022-09-12T10:15:26;16.20;99.90
27759;DHT22;15148;48.972;12.794;2022-09-12T10:20:32;16.30;99.90
27759;DHT22;15148;48.972;12.794;2022-09-12T10:25:35;16.40;99.90
27759;DHT22;15148;48.972;12.794;2022-09-12T10:30:36;16.50;99.90
27759;DHT22;15148;48.972;12.794;2022-09-12T10:35:46;16.70;99.90
27759;DHT22;15148;48.972;12.794;2022-09-12T10:40:56;17.10;99.90
27759;DHT22;15148;48.972;12.794;2022-09-12T10:56:29;17.50;99.90
27759;DHT22;15148;48.972;12.794;2022-09-12T11:06:42;17.70;99.90
27759;DHT22;15148;48.972;12.794;2022-09-12T11:12:00;17.80;99.90
27759;DHT22;15148;48.972;12.794;2022-09-12T11:33:43;18.60;99.90
27759;DHT22;15148;48.972;12.794;2022-09-12T11:43:55;19.10;99.90
27759;DHT22;15148;48.972;12.794;2022-09-12T12:10:40;19.60;99.90
27759;DHT22;15148;48.972;12.794;2022-09-12T12:15:47;19.80;99.90
27759;DHT22;15148;48.972;12.794;2022-09-12T12:20:50;20.00;99.90
27759;DHT22;15148;48.972;12.794;2022-09-12T12:25:56;20.00;99.90
27759;DHT22;15148;48.972;12.794;2022-09-12T12:30:59;20.10;99.90
27759;DHT22;15148;48.972;12.794;2022-09-12T12:36:04;20.30;99.90
27759;DHT22;15148;48.972;12.794;2022-09-12T12:46:23;20.40;99.90
27759;DHT22;15148;48.972;12.794;2022-09-12T12:56:40;20.50;99.90
27759;DHT22;15148;48.972;12.794;2022-09-12T13:01:49;20.60;99.90
27759;DHT22;15148;48.972;12.794;2022-09-12T13:07:02;20.70;99.90
27759;DHT22;15148;48.972;12.794;2022-09-12T13:22:38;20.60;99.90
27759;DHT22;15148;48.972;12.794;2022-09-12T13:27:59;20.60;99.90
27759;DHT22;15148;48.972;12.794;2022-09-12T13:33:27;20.60;99.90
27759;DHT22;15148;48.972;12.794;2022-09-12T13:38:55;20.50;99.90
27759;DHT22;15148;48.972;12.794;2022-09-12T13:44:03;20.30;99.90
27759;DHT22;15148;48.972;12.794;2022-09-12T13:49:49;20.20;99.90
27759;DHT22;15148;48.972;12.794;2022-09-12T13:54:53;20.00;99.90
27759;DHT22;15148;48.972;12.794;2022-09-12T13:59:57;19.80;99.90
27759;DHT22;15148;48.972;12.794;2022-09-12T14:04:59;19.80;99.90
27759;DHT22;15148;48.972;12.794;2022-09-12T14:10:15;19.80;99.90
27759;DHT22;15148;48.972;12.794;2022-09-12T14:15:24;19.70;99.90
27759;DHT22;15148;48.972;12.794;2022-09-12T14:20:29;19.70;99.90
27759;DHT22;15148;48.972;12.794;2022-09-12T14:25:37;19.70;99.90
27759;DHT22;15148;48.972;12.794;2022-09-12T14:41:10;19.40;99.90
27759;DHT22;15148;48.972;12.794;2022-09-12T14:46:35;19.30;99.90
27759;DHT22;15148;48.972;12.794;2022-09-12T14:51:39;19.30;99.90
27759;DHT22;15148;48.972;12.794;2022-09-12T15:07:34;19.00;99.90
27759;DHT22;15148;48.972;12.794;2022-09-12T15:12:36;19.00;99.90
27759;DHT22;15148;48.972;12.794;2022-09-12T15:17:38;18.90;99.90
27759;DHT22;15148;48.972;12.794;2022-09-12T15:22:40;18.80;99.90
27759;DHT22;15148;48.972;12.794;2022-09-12T15:27:46;18.70;99.90
27759;DHT22;15148;48.972;12.794;2022-09-12T15:32:50;18.60;99.90
27759;DHT22;15148;48.972;12.794;2022-09-12T15:37:53;18.60;99.90
27759;DHT22;15148;48.972;12.794;2022-09-12T15:42:55;18.50;99.90
27759;DHT22;15148;48.972;12.794;2022-09-12T15:47:57;18.50;99.90
27759;DHT22;15148;48.972;12.794;2022-09-12T15:52:59;18.40;99.90
27759;DHT22;15148;48.972;12.794;2022-09-12T15:58:00;18.40;99.90
27759;DHT22;15148;48.972;12.794;2022-09-12T16:03:22;18.30;99.90
27759;DHT22;15148;48.972;12.794;2022-09-12T16:08:24;18.30;99.90
27759;DHT22;15148;48.972;12.794;2022-09-12T16:13:26;18.20;99.90
27759;DHT22;15148;48.972;12.794;2022-09-12T16:18:28;18.10;99.90
27759;DHT22;15148;48.972;12.794;2022-09-12T16:23:29;18.00;99.90
27759;DHT22;15148;48.972;12.794;2022-09-12T16:28:31;17.90;99.90
27759;DHT22;15148;48.972;12.794;2022-09-12T16:33:34;17.80;99.90
27759;DHT22;15148;48.972;12.794;2022-09-12T16:38:43;17.70;99.90
27759;DHT22;15148;48.972;12.794;2022-09-12T16:43:46;17.60;99.90
27759;DHT22;15148;48.972;12.794;2022-09-12T16:48:49;17.50;99.90
27759;DHT22;15148;48.972;12.794;2022-09-12T16:53:54;17.50;99.90
27759;DHT22;15148;48.972;12.794;2022-09-12T16:58:56;17.30;99.90
27759;DHT22;15148;48.972;12.794;2022-09-12T17:09:00;16.90;99.90
27759;DHT22;15148;48.972;12.794;2022-09-12T17:14:05;16.90;99.90
27759;DHT22;15148;48.972;12.794;2022-09-12T17:19:13;16.70;99.90
27759;DHT22;15148;48.972;12.794;2022-09-12T17:24:16;16.60;99.90
27759;DHT22;15148;48.972;12.794;2022-09-12T17:29:47;16.40;99.90
27759;DHT22;15148;48.972;12.794;2022-09-12T17:35:22;16.30;99.90
27759;DHT22;15148;48.972;12.794;2022-09-12T17:40:24;16.20;99.90
27759;DHT22;15148;48.972;12.794;2022-09-12T17:45:54;16.20;99.90
27759;DHT22;15148;48.972;12.794;2022-09-12T17:50:57;16.10;99.90
27759;DHT22;15148;48.972;12.794;2022-09-12T17:56:03;16.00;99.90
27759;DHT22;15148;48.972;12.794;2022-09-12T18:01:09;15.90;99.90
27759;DHT22;15148;48.972;12.794;2022-09-12T18:06:31;15.80;99.90
27759;DHT22;15148;48.972;12.794;2022-09-12T18:11:34;15.70;99.90
27759;DHT22;15148;48.972;12.794;2022-09-12T18:16:36;15.70;99.90
27759;DHT22;15148;48.972;12.794;2022-09-12T18:21:38;15.60;99.90
27759;DHT22;15148;48.972;12.794;2022-09-12T18:26:40;15.50;99.90
27759;DHT22;15148;48.972;12.794;2022-09-12T18:31:44;15.40;99.90
27759;DHT22;15148;48.972;12.794;2022-09-12T18:36:49;15.40;99.90
27759;DHT22;15148;48.972;12.794;2022-09-12T18:41:51;15.30;99.90
27759;DHT22;15148;48.972;12.794;2022-09-12T18:46:53;15.20;99.90
27759;DHT22;15148;48.972;12.794;2022-09-12T18:51:54;15.10;99.90
27759;DHT22;15148;48.972;12.794;2022-09-12T18:56:56;15.00;99.90
27759;DHT22;15148;48.972;12.794;2022-09-12T19:01:58;14.90;99.90
27759;DHT22;15148;48.972;12.794;2022-09-12T19:07:00;14.90;99.90
27759;DHT22;15148;48.972;12.794;2022-09-12T19:12:02;14.90;99.90
27759;DHT22;15148;48.972;12.794;2022-09-12T19:17:04;14.90;99.90
27759;DHT22;15148;48.972;12.794;2022-09-12T19:22:06;14.90;99.90
27759;DHT22;15148;48.972;12.794;2022-09-12T19:27:08;14.90;99.90
27759;DHT22;15148;48.972;12.794;2022-09-12T19:32:10;14.90;99.90
27759;DHT22;15148;48.972;12.794;2022-09-12T19:37:11;14.90;99.90
27759;DHT22;15148;48.972;12.794;2022-09-12T19:42:13;14.80;99.90
27759;DHT22;15148;48.972;12.794;2022-09-12T19:47:15;14.80;99.90
27759;DHT22;15148;48.972;12.794;2022-09-12T19:52:17;14.70;99.90
27759;DHT22;15148;48.972;12.794;2022-09-12T19:57:19;14.60;99.90
27759;DHT22;15148;48.972;12.794;2022-09-12T20:02:21;14.40;99.90
27759;DHT22;15148;48.972;12.794;2022-09-12T20:07:26;14.40;99.90
27759;DHT22;15148;48.972;12.794;2022-09-12T20:12:28;14.40;99.90
27759;DHT22;15148;48.972;12.794;2022-09-12T20:17:29;14.20;99.90
27759;DHT22;15148;48.972;12.794;2022-09-12T20:22:32;14.20;99.90
27759;DHT22;15148;48.972;12.794;2022-09-12T20:27:39;14.20;99.90
27759;DHT22;15148;48.972;12.794;2022-09-12T20:32:41;13.90;99.90
27759;DHT22;15148;48.972;12.794;2022-09-12T20:37:44;13.80;99.90
27759;DHT22;15148;48.972;12.794;2022-09-12T20:42:46;13.70;99.90
27759;DHT22;15148;48.972;12.794;2022-09-12T20:47:48;13.70;99.90
27759;DHT22;15148;48.972;12.794;2022-09-12T20:52:50;13.70;99.90
27759;DHT22;15148;48.972;12.794;2022-09-12T20:57:51;13.60;99.90
27759;DHT22;15148;48.972;12.794;2022-09-12T21:02:53;13.50;99.90
27759;DHT22;15148;48.972;12.794;2022-09-12T21:07:55;13.50;99.90
27759;DHT22;15148;48.972;12.794;2022-09-12T21:12:57;13.40;99.90
27759;DHT22;15148;48.972;12.794;2022-09-12T21:17:59;13.40;99.90
27759;DHT22;15148;48.972;12.794;2022-09-12T21:23:00;13.30;99.90
27759;DHT22;15148;48.972;12.794;2022-09-12T21:28:02;13.30;99.90
27759;DHT22;15148;48.972;12.794;2022-09-12T21:33:04;13.30;99.90
27759;DHT22;15148;48.972;12.794;2022-09-12T21:38:06;13.20;99.90
27759;DHT22;15148;48.972;12.794;2022-09-12T21:43:08;13.10;99.90
27759;DHT22;15148;48.972;12.794;2022-09-12T21:48:13;13.20;99.90
27759;DHT22;15148;48.972;12.794;2022-09-12T21:53:15;13.20;99.90
27759;DHT22;15148;48.972;12.794;2022-09-12T21:58:18;13.00;99.90
27759;DHT22;15148;48.972;12.794;2022-09-12T22:03:20;13.00;99.90
27759;DHT22;15148;48.972;12.794;2022-09-12T22:08:21;13.00;99.90
27759;DHT22;15148;48.972;12.794;2022-09-12T22:13:23;13.00;99.90
27759;DHT22;15148;48.972;12.794;2022-09-12T22:18:26;13.00;99.90
27759;DHT22;15148;48.972;12.794;2022-09-12T22:23:28;12.90;99.90
27759;DHT22;15148;48.972;12.794;2022-09-12T22:28:49;13.00;99.90
27759;DHT22;15148;48.972;12.794;2022-09-12T22:33:53;13.00;99.90
27759;DHT22;15148;48.972;12.794;2022-09-12T22:38:58;13.00;99.90
27759;DHT22;15148;48.972;12.794;2022-09-12T22:44:00;12.80;99.90
27759;DHT22;15148;48.972;12.794;2022-09-12T22:49:03;12.60;99.90
27759;DHT22;15148;48.972;12.794;2022-09-12T22:54:05;12.60;99.90
27759;DHT22;15148;48.972;12.794;2022-09-12T22:59:07;12.50;99.90
27759;DHT22;15148;48.972;12.794;2022-09-12T23:04:10;12.60;99.90
27759;DHT22;15148;48.972;12.794;2022-09-12T23:09:11;12.60;99.90
27759;DHT22;15148;48.972;12.794;2022-09-12T23:14:13;12.50;99.90
27759;DHT22;15148;48.972;12.794;2022-09-12T23:19:15;12.50;99.90
27759;DHT22;15148;48.972;12.794;2022-09-12T23:24:17;12.50;99.90
27759;DHT22;15148;48.972;12.794;2022-09-12T23:29:19;12.60;99.90
27759;DHT22;15148;48.972;12.794;2022-09-12T23:34:22;12.60;99.90
27759;DHT22;15148;48.972;12.794;2022-09-12T23:39:23;12.50;99.90
27759;DHT22;15148;48.972;12.794;2022-09-12T23:44:25;12.40;99.90
27759;DHT22;15148;48.972;12.794;2022-09-12T23:49:27;12.50;99.90
27759;DHT22;15148;48.972;12.794;2022-09-12T23:54:28;12.30;99.90
27759;DHT22;15148;48.972;12.794;2022-09-12T23:59:30;12.30;99.90
